createdAt,value
2022-08-18T00:02:28.727Z,100536.88
2022-08-18T00:04:57.426Z,100544.03
2022-08-18T00:07:27.925Z,100547.13
2022-08-18T00:09:55.059Z,100558.44
2022-08-18T00:12:27.154Z,100552.69
2022-08-18T00:14:54.972Z,100545.06
2022-08-18T00:17:22.565Z,100555.34
2022-08-18T00:19:49.884Z,100558.69
2022-08-18T00:22:19.899Z,100562.63
2022-08-18T00:24:50.244Z,100554.31
2022-08-18T00:27:23.307Z,100560.66
2022-08-18T00:29:52.003Z,100574.53
2022-08-18T00:32:26.452Z,100572.56
2022-08-18T00:42:30.270Z,100562.56
2022-08-18T00:45:01.264Z,100547.84
2022-08-18T00:47:42.855Z,100545.50
2022-08-18T00:50:15.505Z,100547.22
2022-08-18T00:52:49.916Z,100550.16
2022-08-18T00:55:18.247Z,100551.59
2022-08-18T00:57:48.511Z,100553.91
2022-08-18T01:00:15.436Z,100547.59
2022-08-18T01:02:47.737Z,100542.34
2022-08-18T01:05:22.494Z,100547.16
2022-08-18T01:07:51.365Z,100549.88
2022-08-18T01:10:21.718Z,100538.66
2022-08-18T01:12:56.736Z,100534.19
2022-08-18T01:15:28.093Z,100531.72
2022-08-18T01:18:21.727Z,100538.38
2022-08-18T01:21:21.371Z,100541.16
2022-08-18T01:23:48.751Z,100548.19
2022-08-18T01:26:17.835Z,100559.31
2022-08-18T01:28:46.533Z,100550.66
2022-08-18T01:31:29.695Z,100556.22
2022-08-18T01:33:57.279Z,100553.66
2022-08-18T01:36:23.862Z,100544.75
2022-08-18T01:38:52.965Z,100542.91
2022-08-18T01:41:29.827Z,100565.19
2022-08-18T01:43:59.620Z,100563.78
2022-08-18T01:46:28.080Z,100561.78
2022-08-18T01:48:58.629Z,100571.53
2022-08-18T01:51:36.265Z,100565.13
2022-08-18T01:54:05.964Z,100565.59
2022-08-18T01:56:32.493Z,100558.94
2022-08-18T01:58:59.082Z,100570.00
2022-08-18T02:01:36.526Z,100565.16
2022-08-18T02:04:31.614Z,100563.13
2022-08-18T02:06:53.770Z,100569.44
2022-08-18T02:09:23.732Z,100575.56
2022-08-18T02:11:51.100Z,100571.25
2022-08-18T02:14:20.260Z,100566.13
2022-08-18T02:16:55.592Z,100575.19
2022-08-18T02:19:28.274Z,100563.69
2022-08-18T02:21:54.808Z,100563.66
2022-08-18T02:24:21.370Z,100551.75
2022-08-18T02:26:47.868Z,100553.06
2022-08-18T02:29:14.359Z,100555.06
2022-08-18T02:31:40.848Z,100549.03
2022-08-18T02:34:07.329Z,100542.88
2022-08-18T02:36:33.816Z,100539.88
2022-08-18T02:39:00.364Z,100537.94
2022-08-18T02:41:29.569Z,100543.69
2022-08-18T02:43:57.029Z,100541.66
2022-08-18T02:46:23.666Z,100538.50
2022-08-18T02:48:56.780Z,100545.66
2022-08-18T02:51:23.382Z,100541.56
2022-08-18T02:53:53.791Z,100540.38
2022-08-18T02:56:33.733Z,100541.16
2022-08-18T02:59:10.497Z,100542.72
2022-08-18T03:01:39.946Z,100543.47
2022-08-18T03:04:08.625Z,100541.50
2022-08-18T03:06:37.171Z,100542.31
2022-08-18T03:09:08.609Z,100542.53
2022-08-18T03:11:36.088Z,100541.88
2022-08-18T03:14:05.311Z,100543.28
2022-08-18T03:16:33.284Z,100539.91
2022-08-18T03:19:03.800Z,100535.00
2022-08-18T03:21:35.695Z,100546.16
2022-08-18T03:24:10.608Z,100546.00
2022-08-18T03:26:42.004Z,100543.78
2022-08-18T03:29:09.606Z,100548.94
2022-08-18T03:31:38.080Z,100549.88
2022-08-18T03:34:07.105Z,100552.03
2022-08-18T03:36:35.377Z,100553.56
2022-08-18T03:39:04.828Z,100548.44
2022-08-18T03:41:57.192Z,100540.56
2022-08-18T03:44:17.862Z,100545.47
2022-08-18T03:46:45.397Z,100551.94
2022-08-18T03:49:13.497Z,100552.88
2022-08-18T03:51:43.636Z,100550.91
2022-08-18T03:54:11.116Z,100549.19
2022-08-18T03:56:39.000Z,100551.84
2022-08-18T03:59:12.572Z,100561.06
2022-08-18T04:01:41.975Z,100544.72
2022-08-18T04:04:15.476Z,100555.31
2022-08-18T04:06:50.030Z,100538.31
2022-08-18T04:09:17.520Z,100536.25
2022-08-18T04:11:45.294Z,100538.25
2022-08-18T04:14:14.360Z,100548.56
2022-08-18T04:16:41.764Z,100552.97
2022-08-18T04:19:09.607Z,100551.69
2022-08-18T04:21:39.339Z,100553.22
2022-08-18T04:24:07.335Z,100558.53
2022-08-18T04:26:36.718Z,100552.47
2022-08-18T04:29:05.425Z,100548.97
2022-08-18T04:31:32.287Z,100560.44
2022-08-18T04:34:01.092Z,100555.03
2022-08-18T04:36:28.875Z,100543.31
2022-08-18T04:38:56.553Z,100544.00
2022-08-18T04:41:30.048Z,100545.56
2022-08-18T04:44:02.459Z,100565.63
2022-08-18T04:46:29.924Z,100565.72
2022-08-18T04:48:59.108Z,100564.91
2022-08-18T04:52:26.720Z,100573.47
2022-08-18T04:54:16.091Z,100572.34
2022-08-18T04:56:42.757Z,100574.00
2022-08-18T04:59:12.944Z,100573.66
2022-08-18T05:01:48.306Z,100576.91
2022-08-18T05:04:16.901Z,100575.03
2022-08-18T05:06:44.760Z,100581.81
2022-08-18T05:09:13.207Z,100584.28
2022-08-18T05:11:44.434Z,100575.47
2022-08-18T05:14:11.871Z,100570.91
2022-08-18T05:16:48.095Z,100572.56
2022-08-18T05:19:21.853Z,100575.03
2022-08-18T05:21:53.342Z,100575.78
2022-08-18T05:24:28.500Z,100588.13
2022-08-18T05:26:57.197Z,100593.38
2022-08-18T05:29:23.699Z,100600.22
2022-08-18T05:31:53.066Z,100591.16
2022-08-18T05:34:22.291Z,100579.41
2022-08-18T05:36:48.701Z,100596.09
2022-08-18T05:39:22.736Z,100595.22
2022-08-18T05:41:51.235Z,100590.28
2022-08-18T05:44:24.545Z,100589.50
2022-08-18T05:46:56.467Z,100593.28
2022-08-18T05:49:25.874Z,100597.88
2022-08-18T05:51:57.640Z,100596.44
2022-08-18T05:54:44.742Z,100607.06
2022-08-18T05:57:18.929Z,100613.81
2022-08-18T05:59:48.088Z,100618.13
2022-08-18T06:02:32.263Z,100610.63
2022-08-18T06:05:12.166Z,100608.50
2022-08-18T06:07:54.439Z,100611.88
2022-08-18T06:10:21.773Z,100613.38
2022-08-18T06:12:52.088Z,100618.69
2022-08-18T06:15:40.336Z,100621.16
2022-08-18T06:18:18.911Z,100620.41
2022-08-18T06:21:25.449Z,100624.78
2022-08-18T06:24:05.058Z,100627.38
2022-08-18T06:27:06.138Z,100627.28
2022-08-18T06:29:51.275Z,100631.53
2022-08-18T06:32:34.245Z,100630.59
2022-08-18T06:35:28.408Z,100637.81
2022-08-18T06:38:31.797Z,100637.72
2022-08-18T06:41:08.500Z,100630.69
2022-08-18T06:43:38.765Z,100634.09
2022-08-18T06:46:21.949Z,100642.78
2022-08-18T06:48:56.077Z,100643.53
2022-08-18T06:51:27.581Z,100640.69
2022-08-18T06:54:03.872Z,100648.50
2022-08-18T06:56:48.887Z,100650.22
2022-08-18T06:59:32.095Z,100657.28
2022-08-18T07:02:19.623Z,100661.56
2022-08-18T07:05:19.149Z,100659.19
2022-08-18T07:07:46.895Z,100657.59
2022-08-18T07:10:16.317Z,100656.91
2022-08-18T07:12:42.798Z,100645.44
2022-08-18T07:15:12.463Z,100655.22
2022-08-18T07:17:51.465Z,100646.34
2022-08-18T07:20:24.598Z,100655.13
2022-08-18T07:22:55.159Z,100644.72
2022-08-18T07:25:29.517Z,100654.50
2022-08-18T07:27:56.733Z,100652.59
2022-08-18T07:30:23.838Z,100651.75
2022-08-18T07:33:13.838Z,100649.09
2022-08-18T07:35:49.486Z,100645.59
2022-08-18T07:38:42.722Z,100649.94
2022-08-18T07:41:39.574Z,100643.69
2022-08-18T07:44:18.345Z,100639.31
2022-08-18T07:47:06.794Z,100637.53
2022-08-18T07:49:36.420Z,100634.88
2022-08-18T07:52:36.421Z,100638.75
2022-08-18T07:55:15.779Z,100637.03
2022-08-18T07:57:57.173Z,100631.22
2022-08-18T08:00:58.028Z,100632.25
2022-08-18T08:03:56.123Z,100634.81
2022-08-18T08:06:31.155Z,100646.97
2022-08-18T08:09:00.685Z,100657.25
2022-08-18T08:11:48.592Z,100649.19
2022-08-18T08:14:35.603Z,100655.88
2022-08-18T08:17:28.932Z,100660.78
2022-08-18T08:20:33.147Z,100660.25
2022-08-18T08:23:09.377Z,100650.81
2022-08-18T08:26:13.603Z,100657.59
2022-08-18T08:29:06.296Z,100663.13
2022-08-18T08:31:45.749Z,100656.59
2022-08-18T08:34:12.168Z,100657.63
2022-08-18T08:36:45.808Z,100655.06
2022-08-18T08:39:26.478Z,100663.34
2022-08-18T08:42:29.196Z,100670.22
2022-08-18T08:44:59.926Z,100664.69
2022-08-18T08:47:34.704Z,100673.53
2022-08-18T08:50:13.166Z,100678.50
2022-08-18T08:53:11.917Z,100676.34
2022-08-18T08:55:47.284Z,100683.06
2022-08-18T08:58:26.068Z,100680.50
2022-08-18T09:00:55.057Z,100688.47
2022-08-18T09:03:45.442Z,100679.00
2022-08-18T09:06:30.308Z,100673.50
2022-08-18T09:09:26.247Z,100673.94
2022-08-18T09:12:04.796Z,100668.22
2022-08-18T09:14:51.689Z,100663.28
2022-08-18T09:17:38.105Z,100656.25
2022-08-18T09:20:49.793Z,100658.28
2022-08-18T09:23:24.708Z,100652.00
2022-08-18T09:25:56.774Z,100656.25
2022-08-18T09:28:56.204Z,100659.78
2022-08-18T09:31:23.957Z,100659.88
2022-08-18T09:34:15.709Z,100650.84
2022-08-18T09:36:45.167Z,100654.34
2022-08-18T09:39:53.912Z,100657.22
2022-08-18T09:42:59.825Z,100659.56
2022-08-18T09:45:33.708Z,100668.06
2022-08-18T09:48:12.857Z,100655.50
2022-08-18T09:50:57.204Z,100652.47
2022-08-18T09:53:48.244Z,100656.34
2022-08-18T10:01:52.647Z,100660.06
2022-08-18T10:04:35.723Z,100658.38
2022-08-18T10:07:38.932Z,100667.97
2022-08-18T10:13:25.114Z,100667.47
2022-08-18T10:16:10.657Z,100669.34
2022-08-18T10:19:17.512Z,100669.84
2022-08-18T10:21:56.154Z,100675.34
2022-08-18T10:24:38.026Z,100666.38
2022-08-18T10:27:29.381Z,100663.63
2022-08-18T10:29:57.786Z,100665.16
2022-08-18T10:32:38.151Z,100660.34
2022-08-18T10:35:06.248Z,100652.06
2022-08-18T10:37:43.506Z,100661.56
2022-08-18T10:40:10.075Z,100653.88
2022-08-18T10:43:01.363Z,100669.47
2022-08-18T10:45:59.369Z,100660.41
2022-08-18T10:48:34.506Z,100658.28
2022-08-18T10:54:23.349Z,100647.56
2022-08-18T10:56:57.544Z,100647.00
2022-08-18T10:59:54.668Z,100649.09
2022-08-18T11:02:21.235Z,100644.69
2022-08-18T11:04:58.583Z,100649.63
2022-08-18T11:13:10.995Z,100613.94
2022-08-18T11:15:59.940Z,100617.81
2022-08-18T11:18:32.693Z,100610.25
2022-08-18T11:21:22.634Z,100624.84
2022-08-18T11:24:32.264Z,100627.47
2022-08-18T11:27:15.242Z,100624.81
2022-08-18T11:29:43.069Z,100624.63
2022-08-18T11:32:32.795Z,100622.19
2022-08-18T11:35:16.198Z,100620.16
2022-08-18T11:37:53.459Z,100615.78
2022-08-18T11:41:02.426Z,100604.25
2022-08-18T11:43:13.227Z,100591.63
2022-08-18T11:45:55.780Z,100585.06
2022-08-18T11:48:39.100Z,100595.63
2022-08-18T11:51:28.487Z,100595.72
2022-08-18T11:54:02.552Z,100593.06
2022-08-18T11:56:35.888Z,100601.56
2022-08-18T11:59:09.298Z,100602.97
2022-08-18T12:01:51.331Z,100601.03
2022-08-18T12:04:38.434Z,100601.66
2022-08-18T12:07:09.784Z,100597.81
2022-08-18T12:10:16.789Z,100592.41
2022-08-18T12:12:34.940Z,100593.34
2022-08-18T12:15:24.001Z,100593.03
2022-08-18T12:17:53.671Z,100596.66
2022-08-18T12:20:21.924Z,100583.56
2022-08-18T12:22:49.937Z,100594.13
2022-08-18T12:25:25.024Z,100602.31
2022-08-18T12:27:53.389Z,100610.13
2022-08-18T12:30:20.102Z,100617.59
2022-08-18T12:32:50.723Z,100622.47
2022-08-18T12:35:22.635Z,100631.88
2022-08-18T12:38:12.940Z,100639.91
2022-08-18T12:40:36.386Z,100652.28
2022-08-18T12:43:03.153Z,100650.25
2022-08-18T12:45:32.728Z,100661.81
2022-08-18T12:48:02.414Z,100662.75
2022-08-18T12:50:36.151Z,100668.94
2022-08-18T12:53:05.090Z,100657.94
2022-08-18T12:58:23.440Z,100629.13
2022-08-18T13:00:51.465Z,100627.41
2022-08-18T13:03:19.194Z,100626.13
2022-08-18T13:05:45.757Z,100624.09
2022-08-18T13:08:30.676Z,100620.78
2022-08-18T13:11:15.168Z,100609.59
2022-08-18T13:13:53.177Z,100600.50
2022-08-18T13:16:38.606Z,100600.69
2022-08-18T13:19:07.214Z,100601.56
2022-08-18T13:21:41.029Z,100607.44
2022-08-18T13:24:09.409Z,100610.00
2022-08-18T13:26:39.985Z,100595.47
2022-08-18T13:29:10.175Z,100595.38
2022-08-18T13:31:38.027Z,100589.41
2022-08-18T13:34:11.887Z,100586.72
2022-08-18T13:36:46.059Z,100589.91
2022-08-18T13:39:18.916Z,100594.47
2022-08-18T13:41:47.594Z,100582.94
2022-08-18T13:44:18.751Z,100574.63
2022-08-18T13:46:47.352Z,100588.31
2022-08-18T13:49:18.580Z,100569.50
2022-08-18T13:52:00.758Z,100561.84
2022-08-18T13:54:35.248Z,100556.91
2022-08-18T13:57:03.141Z,100558.97
2022-08-18T13:59:33.212Z,100554.69
2022-08-18T14:02:05.834Z,100562.25
2022-08-18T14:04:36.201Z,100562.84
2022-08-18T14:07:07.292Z,100559.22
2022-08-18T14:09:38.029Z,100559.72
2022-08-18T14:12:15.765Z,100560.44
2022-08-18T14:14:51.899Z,100557.97
2022-08-18T14:17:19.792Z,100570.88
2022-08-18T14:20:10.328Z,100573.56
2022-08-18T14:22:55.916Z,100570.19
2022-08-18T14:25:41.181Z,100574.81
2022-08-18T14:28:09.235Z,100573.81
2022-08-18T14:30:39.392Z,100563.59
2022-08-18T14:33:07.771Z,100566.38
2022-08-18T14:36:06.475Z,100564.34
2022-08-18T14:38:24.832Z,100561.44
2022-08-18T14:40:51.671Z,100560.09
2022-08-18T14:43:24.994Z,100553.16
2022-08-18T14:45:53.696Z,100563.25
2022-08-18T14:48:27.303Z,100559.34
2022-08-18T14:50:56.136Z,100565.22
2022-08-18T14:53:26.995Z,100566.44
2022-08-18T14:55:54.930Z,100566.31
2022-08-18T14:58:27.808Z,100554.53
2022-08-18T15:00:56.749Z,100561.47
2022-08-18T15:03:28.315Z,100563.53
2022-08-18T15:06:00.495Z,100554.91
2022-08-18T15:08:27.689Z,100552.44
2022-08-18T15:10:56.210Z,100543.47
2022-08-18T15:13:26.518Z,100543.94
2022-08-18T15:15:55.808Z,100537.63
2022-08-18T15:18:29.552Z,100535.44
2022-08-18T15:21:34.886Z,100538.97
2022-08-18T15:24:22.243Z,100544.56
2022-08-18T15:26:58.246Z,100542.25
2022-08-18T15:29:29.848Z,100539.94
2022-08-18T15:32:01.934Z,100541.00
2022-08-18T15:34:30.071Z,100550.00
2022-08-18T15:36:57.407Z,100541.00
2022-08-18T15:39:36.385Z,100542.50
2022-08-18T15:42:10.235Z,100547.25
2022-08-18T15:44:37.122Z,100552.72
2022-08-18T15:47:05.849Z,100545.16
2022-08-18T15:49:36.040Z,100552.75
2022-08-18T15:52:02.732Z,100548.38
2022-08-18T15:54:29.296Z,100541.75
2022-08-18T15:56:58.269Z,100548.09
2022-08-18T15:59:27.059Z,100547.25
2022-08-18T16:02:02.113Z,100543.47
2022-08-18T16:04:28.656Z,100540.34
2022-08-18T16:06:56.057Z,100539.13
2022-08-18T16:09:22.685Z,100538.03
2022-08-18T16:11:49.235Z,100534.25
2022-08-18T16:14:15.699Z,100535.97
2022-08-18T16:16:42.185Z,100529.88
2022-08-18T16:19:08.670Z,100529.88
2022-08-18T16:21:39.563Z,100528.41
2022-08-18T16:24:07.242Z,100525.72
2022-08-18T16:26:33.952Z,100532.06
2022-08-18T16:29:02.015Z,100527.56
2022-08-18T16:31:29.370Z,100530.09
2022-08-18T16:33:58.009Z,100527.34
2022-08-18T16:36:25.720Z,100523.56
2022-08-18T16:38:53.612Z,100523.56
2022-08-18T16:41:20.894Z,100526.22
2022-08-18T16:43:47.600Z,100527.34
2022-08-18T16:46:18.472Z,100523.56
2022-08-18T16:48:45.860Z,100521.13
2022-08-18T16:51:14.323Z,100517.81
2022-08-18T16:53:41.019Z,100522.44
2022-08-18T16:56:12.888Z,100521.47
2022-08-18T16:58:57.936Z,100515.03
2022-08-18T17:01:49.075Z,100508.84
2022-08-18T17:04:20.632Z,100497.25
2022-08-18T17:06:47.943Z,100507.09
2022-08-18T17:09:15.358Z,100501.75
2022-08-18T17:11:48.189Z,100506.16
2022-08-18T17:14:20.665Z,100499.91
2022-08-18T17:16:49.611Z,100507.00
2022-08-18T17:19:18.958Z,100506.25
2022-08-18T17:21:45.907Z,100515.50
2022-08-18T17:24:12.548Z,100516.63
2022-08-18T17:26:44.514Z,100508.09
2022-08-18T17:29:25.712Z,100505.00
2022-08-18T17:32:04.598Z,100498.22
2022-08-18T17:34:39.450Z,100497.72
2022-08-18T17:37:10.509Z,100501.38
2022-08-18T17:39:51.344Z,100499.19
2022-08-18T17:42:26.900Z,100500.88
2022-08-18T17:44:59.064Z,100498.44
2022-08-18T17:47:33.359Z,100501.50
2022-08-18T17:50:27.883Z,100496.63
2022-08-18T17:53:05.338Z,100501.59
2022-08-18T17:55:39.354Z,100497.47
2022-08-18T17:58:25.337Z,100504.78
2022-08-18T18:00:52.530Z,100500.63
2022-08-18T18:03:19.250Z,100499.88
2022-08-18T18:05:51.807Z,100502.81
2022-08-18T18:08:18.444Z,100507.41
2022-08-18T18:11:04.348Z,100502.19
2022-08-18T18:13:34.787Z,100489.91
2022-08-18T18:16:21.095Z,100488.22
2022-08-18T18:19:00.891Z,100493.53
2022-08-18T18:21:55.283Z,100491.56
2022-08-18T18:24:15.466Z,100490.94
2022-08-18T18:26:48.109Z,100490.81
2022-08-18T18:29:37.720Z,100489.84
2022-08-18T18:32:38.865Z,100486.44
2022-08-18T18:35:13.511Z,100488.81
2022-08-18T18:37:52.815Z,100487.69
2022-08-18T18:40:27.444Z,100491.47
2022-08-18T18:42:55.707Z,100497.28
2022-08-18T18:45:28.629Z,100498.47
2022-08-18T18:48:38.679Z,100499.91
2022-08-18T18:51:19.313Z,100499.28
2022-08-18T18:54:15.477Z,100499.63
2022-08-18T18:56:56.555Z,100511.16
2022-08-18T18:59:52.897Z,100512.25
2022-08-18T19:02:34.739Z,100517.44
2022-08-18T19:05:30.971Z,100511.25
2022-08-18T19:08:17.219Z,100509.00
2022-08-18T19:10:59.446Z,100510.09
2022-08-18T19:13:34.944Z,100505.81
2022-08-18T19:16:24.714Z,100510.53
2022-08-18T19:18:59.766Z,100515.22
2022-08-18T19:22:03.382Z,100524.19
2022-08-18T19:24:37.527Z,100526.06
2022-08-18T19:27:06.750Z,100521.78
2022-08-18T19:29:40.628Z,100533.41
2022-08-18T19:32:16.641Z,100538.66
2022-08-18T19:34:52.836Z,100542.63
2022-08-18T19:37:56.317Z,100536.66
2022-08-18T19:40:29.262Z,100539.03
2022-08-18T19:43:23.663Z,100541.88
2022-08-18T19:45:59.306Z,100532.19
2022-08-18T19:48:34.807Z,100533.91
2022-08-18T19:51:08.107Z,100526.75
2022-08-18T19:53:53.396Z,100526.34
2022-08-18T19:56:50.935Z,100527.31
2022-08-18T19:59:23.376Z,100524.09
2022-08-18T20:01:52.128Z,100523.47
2022-08-18T20:04:49.198Z,100527.09
2022-08-18T20:07:37.911Z,100532.75
2022-08-18T20:10:25.766Z,100534.56
2022-08-18T20:13:11.697Z,100536.25
2022-08-18T20:16:10.856Z,100543.41
2022-08-18T20:18:43.596Z,100551.41
2022-08-18T20:21:16.516Z,100547.91
2022-08-18T20:24:08.525Z,100538.19
2022-08-18T20:26:35.058Z,100550.66
2022-08-18T20:29:02.248Z,100550.31
2022-08-18T20:31:45.104Z,100548.28
2022-08-18T20:34:14.693Z,100546.88
2022-08-18T20:36:43.699Z,100548.06
2022-08-18T20:39:32.126Z,100545.50
2022-08-18T20:42:01.114Z,100550.28
2022-08-18T20:44:29.559Z,100548.69
2022-08-18T20:47:24.318Z,100564.34
2022-08-18T20:50:12.872Z,100554.72
2022-08-18T20:53:00.370Z,100550.13
2022-08-18T20:55:42.013Z,100562.81
2022-08-18T20:58:20.880Z,100556.06
2022-08-18T21:00:57.304Z,100555.72
2022-08-18T21:03:35.619Z,100557.75
2022-08-18T21:06:02.926Z,100558.81
2022-08-18T21:08:32.931Z,100553.84
2022-08-18T21:11:02.942Z,100557.56
2022-08-18T21:13:31.506Z,100562.16
2022-08-18T21:15:58.300Z,100561.47
2022-08-18T21:18:26.097Z,100565.22
2022-08-18T21:20:56.076Z,100564.34
2022-08-18T21:23:29.799Z,100555.81
2022-08-18T21:26:02.811Z,100559.06
2022-08-18T21:28:36.183Z,100551.28
2022-08-18T21:31:28.971Z,100555.50
2022-08-18T21:34:00.508Z,100553.84
2022-08-18T21:36:32.392Z,100548.75
2022-08-18T21:39:06.682Z,100548.00
2022-08-18T21:41:39.293Z,100554.19
2022-08-18T21:44:21.879Z,100549.75
2022-08-18T21:46:48.832Z,100552.84
2022-08-18T21:49:28.184Z,100560.84
2022-08-18T21:51:54.740Z,100566.16
2022-08-18T21:54:24.737Z,100569.03
2022-08-18T21:57:27.374Z,100565.50
2022-08-18T22:00:17.208Z,100573.13
2022-08-18T22:02:45.296Z,100569.59
2022-08-18T22:05:12.478Z,100566.19
2022-08-18T22:07:48.605Z,100562.81
2022-08-18T22:10:44.363Z,100564.94
2022-08-18T22:13:42.054Z,100568.53
2022-08-18T22:16:36.546Z,100572.34
2022-08-18T22:19:19.110Z,100576.41
2022-08-18T22:21:49.894Z,100566.34
2022-08-18T22:24:19.722Z,100570.50
2022-08-18T22:27:04.356Z,100577.69
2022-08-18T22:29:45.819Z,100571.06
2022-08-18T22:32:13.603Z,100570.50
2022-08-18T22:34:40.620Z,100576.00
2022-08-18T22:37:15.236Z,100575.03
2022-08-18T22:40:02.069Z,100561.38
2022-08-18T22:42:32.879Z,100567.34
2022-08-18T22:45:04.891Z,100572.03
2022-08-18T22:47:43.260Z,100576.34
2022-08-18T22:50:13.068Z,100571.44
2022-08-18T22:52:48.202Z,100574.25
2022-08-18T22:55:20.212Z,100574.19
2022-08-18T22:57:50.972Z,100575.69
2022-08-18T23:00:22.888Z,100572.66
2022-08-18T23:02:49.932Z,100566.38
2022-08-18T23:05:16.604Z,100571.13
2022-08-18T23:07:43.079Z,100578.31
2022-08-18T23:10:13.664Z,100583.22
2022-08-18T23:12:43.114Z,100586.28
2022-08-18T23:15:13.006Z,100581.09
2022-08-18T23:17:41.068Z,100586.22
2022-08-18T23:20:17.679Z,100594.00
2022-08-18T23:22:45.502Z,100585.78
2022-08-18T23:25:13.353Z,100596.75
2022-08-18T23:27:40.856Z,100592.78
2022-08-18T23:30:07.963Z,100597.91
2022-08-18T23:32:34.441Z,100596.81
2022-08-18T23:35:00.961Z,100594.06
2022-08-18T23:37:27.543Z,100586.94
2022-08-18T23:39:54.025Z,100588.44
2022-08-18T23:42:22.967Z,100587.81
2022-08-18T23:44:49.880Z,100585.78
2022-08-18T23:47:18.477Z,100588.88
2022-08-18T23:49:44.945Z,100593.75
2022-08-18T23:52:11.476Z,100591.28
2022-08-18T23:54:38.905Z,100594.88
2022-08-18T23:57:05.675Z,100594.69
2022-08-18T23:59:32.188Z,100600.88
